Time;durP1;ratioP1;P1;durP2;ratioP2;P2;SDS_P1;SDS_P2;PMS_P1;PMS_P2;Temp;Humidity;BMP_temperature;BMP_pressure;BME280_temperature;BME280_humidity;BME280_pressure;Samples;Min_cycle;Max_cycle;Signal;HPM_P1;HPM_P2
2021/06/20 00:00:17;;;;;;;;;;;22.00;99.90;;;;;;6275358;22;19947;-78
2021/06/20 00:02:51;;;;;;;;;;;22.00;99.90;;;;;;6251056;22;19920;-78
2021/06/20 00:05:19;;;;;;;;;;;22.00;99.90;;;;;;6249943;22;19919;-78
2021/06/20 00:07:46;;;;;;;;;;;22.00;99.90;;;;;;6275407;22;19942;-78
2021/06/20 00:10:20;;;;;;;;;;;21.90;99.90;;;;;;6275433;22;20001;-78
2021/06/20 00:12:48;;;;;;;;;;;21.80;99.90;;;;;;6249782;22;19919;-77
2021/06/20 00:15:16;;;;;;;;;;;21.80;99.90;;;;;;6252508;22;19926;-78
2021/06/20 00:17:48;;;;;;;;;;;21.90;99.90;;;;;;6281517;22;20005;-78
2021/06/20 00:20:16;;;;;;;;;;;21.90;99.90;;;;;;6254776;22;19973;-78
2021/06/20 00:22:43;;;;;;;;;;;21.90;99.90;;;;;;6254754;22;19926;-78
2021/06/20 00:25:15;;;;;;;;;;;22.00;99.90;;;;;;6280199;22;19958;-78
2021/06/20 00:27:47;;;;;;;;;;;21.90;99.90;;;;;;6255584;22;19918;-78
2021/06/20 00:30:20;;;;;;;;;;;21.90;99.90;;;;;;6255717;22;19953;-78
2021/06/20 00:32:47;;;;;;;;;;;21.80;99.90;;;;;;6280092;22;19972;-78
2021/06/20 00:35:14;;;;;;;;;;;21.80;99.90;;;;;;6254572;22;20302;-78
2021/06/20 00:37:41;;;;;;;;;;;21.80;99.90;;;;;;6280241;22;19968;-78
2021/06/20 00:40:14;;;;;;;;;;;21.80;99.90;;;;;;6256019;22;19997;-78
2021/06/20 00:42:41;;;;;;;;;;;21.80;99.90;;;;;;6280231;22;20014;-78
2021/06/20 00:45:09;;;;;;;;;;;21.80;99.90;;;;;;6280024;22;20309;-78
2021/06/20 00:47:40;;;;;;;;;;;21.80;99.90;;;;;;6279918;22;19998;-78
2021/06/20 00:50:08;;;;;;;;;;;21.70;99.90;;;;;;6280037;22;20259;-78
2021/06/20 00:52:41;;;;;;;;;;;21.70;99.90;;;;;;6255979;22;19942;-78
2021/06/20 00:55:08;;;;;;;;;;;21.70;99.90;;;;;;6254332;22;19919;-78
2021/06/20 00:57:40;;;;;;;;;;;21.70;99.90;;;;;;6255565;22;19919;-78
2021/06/20 01:00:14;;;;;;;;;;;21.70;99.90;;;;;;6281330;22;19930;-78
2021/06/20 01:02:44;;;;;;;;;;;21.70;99.90;;;;;;6253801;22;19941;-78
2021/06/20 01:05:16;;;;;;;;;;;21.80;99.90;;;;;;6254943;22;19973;-78
2021/06/20 01:07:43;;;;;;;;;;;21.70;99.90;;;;;;6279199;22;19969;-78
2021/06/20 01:10:10;;;;;;;;;;;21.70;99.90;;;;;;6279118;22;19958;-78
2021/06/20 01:12:42;;;;;;;;;;;21.60;99.90;;;;;;6280073;22;19991;-78
2021/06/20 01:15:09;;;;;;;;;;;21.60;99.90;;;;;;6254094;22;19919;-78
2021/06/20 01:17:36;;;;;;;;;;;21.60;99.90;;;;;;6254281;22;19950;-78
2021/06/20 01:20:08;;;;;;;;;;;21.60;99.90;;;;;;6253699;22;19919;-78
2021/06/20 01:22:36;;;;;;;;;;;21.50;99.90;;;;;;6253489;22;19919;-77
2021/06/20 01:25:09;;;;;;;;;;;21.50;99.90;;;;;;6279151;22;19993;-78
2021/06/20 01:27:47;;;;;;;;;;;21.50;99.90;;;;;;6278621;22;19954;-78
2021/06/20 01:30:23;;;;;;;;;;;21.40;99.90;;;;;;6254542;22;19926;-78
2021/06/20 01:32:56;;;;;;;;;;;21.30;99.90;;;;;;6279297;22;19969;-78
2021/06/20 01:35:23;;;;;;;;;;;21.30;99.90;;;;;;6279668;22;20307;-78
2021/06/20 01:37:59;;;;;;;;;;;21.30;99.90;;;;;;6279495;22;20401;-78
2021/06/20 01:40:26;;;;;;;;;;;21.30;99.90;;;;;;6279840;22;19919;-78
2021/06/20 01:42:58;;;;;;;;;;;21.30;99.90;;;;;;6307453;22;19950;-78
2021/06/20 01:45:30;;;;;;;;;;;21.20;99.90;;;;;;6255391;22;19997;-77
2021/06/20 01:47:58;;;;;;;;;;;21.10;99.90;;;;;;6254101;22;19964;-78
2021/06/20 01:50:30;;;;;;;;;;;21.00;99.90;;;;;;6279561;22;20320;-78
2021/06/20 01:53:01;;;;;;;;;;;21.00;99.90;;;;;;6280416;22;19926;-78
2021/06/20 01:55:34;;;;;;;;;;;21.00;99.90;;;;;;6307527;22;19941;-77
2021/06/20 01:58:06;;;;;;;;;;;20.90;99.90;;;;;;6279314;22;19927;-78
2021/06/20 02:00:33;;;;;;;;;;;20.80;99.90;;;;;;6279885;22;19923;-78
2021/06/20 02:03:06;;;;;;;;;;;20.80;99.90;;;;;;6254421;22;19953;-78
2021/06/20 02:05:39;;;;;;;;;;;20.70;99.90;;;;;;6279843;22;20016;-77
2021/06/20 02:08:06;;;;;;;;;;;20.60;99.90;;;;;;6279415;22;19952;-78
2021/06/20 02:10:33;;;;;;;;;;;20.60;99.90;;;;;;6279879;22;20336;-78
2021/06/20 02:13:05;;;;;;;;;;;20.50;99.90;;;;;;6255248;22;20002;-78
2021/06/20 02:15:36;;;;;;;;;;;20.40;99.90;;;;;;6255239;22;19951;-78
2021/06/20 02:18:04;;;;;;;;;;;20.40;99.90;;;;;;6279379;22;19919;-78
2021/06/20 02:20:31;;;;;;;;;;;20.50;99.90;;;;;;6279763;22;19969;-78
2021/06/20 02:22:58;;;;;;;;;;;20.40;99.90;;;;;;6279207;22;20219;-78
2021/06/20 02:25:30;;;;;;;;;;;20.40;99.90;;;;;;6279141;22;19997;-78
2021/06/20 02:27:56;;;;;;;;;;;20.50;99.90;;;;;;6253964;22;19930;-78
2021/06/20 02:30:23;;;;;;;;;;;20.40;99.90;;;;;;6253842;22;19926;-78
2021/06/20 02:32:51;;;;;;;;;;;20.40;99.90;;;;;;6254030;22;19919;-78
2021/06/20 02:35:19;;;;;;;;;;;20.40;99.90;;;;;;6254096;22;20358;-78
2021/06/20 02:37:47;;;;;;;;;;;20.50;99.90;;;;;;6279107;22;20013;-78
2021/06/20 02:40:18;;;;;;;;;;;20.50;99.90;;;;;;6279273;22;19961;-78
2021/06/20 02:42:46;;;;;;;;;;;20.50;99.90;;;;;;6253739;22;20127;-77
2021/06/20 02:45:17;;;;;;;;;;;20.30;99.90;;;;;;6253529;22;20399;-78
2021/06/20 02:47:50;;;;;;;;;;;20.20;99.90;;;;;;6254291;22;20340;-78
2021/06/20 02:50:16;;;;;;;;;;;20.10;99.90;;;;;;6253595;22;19976;-78
2021/06/20 02:52:48;;;;;;;;;;;20.00;99.90;;;;;;6254905;22;20006;-78
2021/06/20 02:55:15;;;;;;;;;;;20.00;99.90;;;;;;6253968;22;20002;-78
2021/06/20 02:57:42;;;;;;;;;;;19.90;99.90;;;;;;6279099;22;19950;-78
2021/06/20 03:00:09;;;;;;;;;;;19.90;99.90;;;;;;6254195;22;19919;-78
2021/06/20 03:02:36;;;;;;;;;;;20.00;99.90;;;;;;6253898;22;20348;-78
2021/06/20 03:05:04;;;;;;;;;;;20.00;99.90;;;;;;6253825;22;19926;-78
2021/06/20 03:07:30;;;;;;;;;;;20.00;99.90;;;;;;6279397;22;19977;-78
2021/06/20 03:09:57;;;;;;;;;;;20.10;99.90;;;;;;6279228;22;20024;-78
2021/06/20 03:12:24;;;;;;;;;;;20.10;99.90;;;;;;6253809;22;19918;-78
2021/06/20 03:14:51;;;;;;;;;;;20.20;99.90;;;;;;6279332;22;19919;-78
2021/06/20 03:17:18;;;;;;;;;;;20.30;99.90;;;;;;6279465;22;19919;-78
2021/06/20 03:19:50;;;;;;;;;;;20.40;99.90;;;;;;6280602;22;20002;-78
2021/06/20 03:22:22;;;;;;;;;;;20.40;99.90;;;;;;6279395;22;19950;-77
2021/06/20 03:24:50;;;;;;;;;;;20.50;99.90;;;;;;6306391;22;20003;-78
2021/06/20 03:27:17;;;;;;;;;;;20.60;99.90;;;;;;6279232;22;20240;-78
2021/06/20 03:29:46;;;;;;;;;;;20.60;99.90;;;;;;6306209;22;19919;-78
2021/06/20 03:32:13;;;;;;;;;;;20.50;99.90;;;;;;6253893;22;19919;-78
2021/06/20 03:34:45;;;;;;;;;;;20.50;99.90;;;;;;6280780;22;19954;-78
2021/06/20 03:37:11;;;;;;;;;;;20.40;99.90;;;;;;6281471;22;19954;-78
2021/06/20 03:39:41;;;;;;;;;;;20.30;99.90;;;;;;6281252;22;19919;-78
2021/06/20 03:42:08;;;;;;;;;;;20.20;99.90;;;;;;6255582;22;19918;-78
2021/06/20 03:44:34;;;;;;;;;;;20.10;99.90;;;;;;6255609;22;20298;-78
2021/06/20 03:47:01;;;;;;;;;;;20.10;99.90;;;;;;6281682;22;19919;-78
2021/06/20 03:49:33;;;;;;;;;;;20.00;99.90;;;;;;6256793;22;20006;-78
2021/06/20 03:52:00;;;;;;;;;;;20.00;99.90;;;;;;6281115;22;19919;-78
2021/06/20 03:54:26;;;;;;;;;;;20.00;99.90;;;;;;6281185;22;19930;-78
2021/06/20 03:56:54;;;;;;;;;;;20.10;99.90;;;;;;6256105;22;20006;-78
2021/06/20 03:59:21;;;;;;;;;;;20.10;99.90;;;;;;6255345;22;19919;-78
2021/06/20 04:01:53;;;;;;;;;;;20.10;99.90;;;;;;6256589;22;19919;-78
2021/06/20 04:04:25;;;;;;;;;;;20.20;99.90;;;;;;6280738;22;19946;-78
2021/06/20 04:06:52;;;;;;;;;;;20.40;99.90;;;;;;6280991;22;19926;-78
2021/06/20 04:09:19;;;;;;;;;;;20.50;99.90;;;;;;6280702;22;19954;-78
2021/06/20 04:11:50;;;;;;;;;;;20.50;99.90;;;;;;6280580;22;20002;-78
2021/06/20 04:14:17;;;;;;;;;;;20.50;99.90;;;;;;6255295;22;19919;-78
2021/06/20 04:16:44;;;;;;;;;;;20.70;99.90;;;;;;6280983;22;19919;-78
2021/06/20 04:19:16;;;;;;;;;;;20.80;99.90;;;;;;6280583;22;19919;-77
2021/06/20 04:21:43;;;;;;;;;;;20.90;99.90;;;;;;6254632;22;19919;-78
2021/06/20 04:24:10;;;;;;;;;;;21.00;99.90;;;;;;6280370;22;20292;-77
2021/06/20 04:26:36;;;;;;;;;;;21.10;99.90;;;;;;6307776;22;19923;-77
2021/06/20 04:29:03;;;;;;;;;;;21.10;99.90;;;;;;6254675;22;19946;-77
2021/06/20 04:31:30;;;;;;;;;;;21.10;99.90;;;;;;6254897;22;19919;-77
2021/06/20 04:33:56;;;;;;;;;;;21.10;99.90;;;;;;6279940;22;19922;-77
2021/06/20 04:36:23;;;;;;;;;;;21.20;99.90;;;;;;6254503;22;19919;-77
2021/06/20 04:38:55;;;;;;;;;;;21.30;99.90;;;;;;6280028;22;20006;-77
2021/06/20 04:41:23;;;;;;;;;;;21.30;99.90;;;;;;6279941;22;19964;-76
2021/06/20 04:46:36;;;;;;;;;;;21.40;99.90;;;;;;6279916;22;20296;-77
2021/06/20 04:49:09;;;;;;;;;;;21.40;99.90;;;;;;6255731;22;19957;-77
2021/06/20 04:51:41;;;;;;;;;;;21.50;99.90;;;;;;6280017;22;20366;-77
2021/06/20 04:54:14;;;;;;;;;;;21.50;99.90;;;;;;6255751;22;19954;-77
2021/06/20 04:56:41;;;;;;;;;;;21.60;99.90;;;;;;6280176;22;19961;-79
2021/06/20 04:59:13;;;;;;;;;;;21.60;99.90;;;;;;6256321;22;20005;-78
2021/06/20 05:01:40;;;;;;;;;;;21.70;99.90;;;;;;6254806;22;19994;-77
2021/06/20 05:04:07;;;;;;;;;;;21.70;99.90;;;;;;6254665;22;20302;-78
2021/06/20 05:06:39;;;;;;;;;;;21.80;99.90;;;;;;6280124;22;20388;-78
2021/06/20 05:09:06;;;;;;;;;;;21.80;99.90;;;;;;6279794;22;19925;-78
2021/06/20 05:11:33;;;;;;;;;;;21.80;99.90;;;;;;6254413;22;20339;-78
2021/06/20 05:14:00;;;;;;;;;;;21.80;99.90;;;;;;6279827;22;19930;-78
2021/06/20 05:16:32;;;;;;;;;;;21.70;99.90;;;;;;6281232;22;19942;-78
2021/06/20 05:18:59;;;;;;;;;;;21.70;99.90;;;;;;6279666;22;19968;-77
2021/06/20 05:21:33;;;;;;;;;;;21.60;99.90;;;;;;6279759;22;19923;-78
2021/06/20 05:24:01;;;;;;;;;;;21.60;99.90;;;;;;6279854;22;19984;-78
2021/06/20 05:26:33;;;;;;;;;;;21.60;99.90;;;;;;6280288;22;20241;-78
2021/06/20 05:29:00;;;;;;;;;;;21.70;99.90;;;;;;6254296;22;19919;-78
2021/06/20 05:31:27;;;;;;;;;;;21.70;99.90;;;;;;6279622;22;19930;-78
2021/06/20 05:33:54;;;;;;;;;;;21.70;99.90;;;;;;6254172;22;19918;-78
2021/06/20 05:36:26;;;;;;;;;;;21.70;99.90;;;;;;6280044;22;20294;-78
2021/06/20 05:38:52;;;;;;;;;;;21.70;99.90;;;;;;6279283;22;19972;-77
2021/06/20 05:41:20;;;;;;;;;;;21.70;99.90;;;;;;6254630;22;19919;-78
2021/06/20 05:43:53;;;;;;;;;;;21.70;99.90;;;;;;6279866;22;19925;-78
2021/06/20 05:46:22;;;;;;;;;;;21.70;99.90;;;;;;6280365;22;19919;-78
2021/06/20 05:48:49;;;;;;;;;;;21.70;99.90;;;;;;6279727;22;19922;-78
2021/06/20 05:51:16;;;;;;;;;;;21.70;99.90;;;;;;6254255;22;19919;-77
2021/06/20 05:53:50;;;;;;;;;;;21.70;99.90;;;;;;6279344;22;19930;-78
2021/06/20 05:56:24;;;;;;;;;;;21.70;99.90;;;;;;6279677;22;19965;-78
2021/06/20 05:58:51;;;;;;;;;;;21.60;99.90;;;;;;6254447;22;19919;-78
2021/06/20 06:01:18;;;;;;;;;;;21.60;99.90;;;;;;6307544;22;19926;-78
2021/06/20 06:03:46;;;;;;;;;;;21.60;99.90;;;;;;6280441;22;19919;-78
2021/06/20 06:06:13;;;;;;;;;;;21.50;99.90;;;;;;6254640;22;19925;-78
2021/06/20 06:08:45;;;;;;;;;;;21.40;99.90;;;;;;6280286;22;19926;-78
2021/06/20 06:11:12;;;;;;;;;;;21.40;99.90;;;;;;6280230;22;19943;-78
2021/06/20 06:13:40;;;;;;;;;;;21.30;99.90;;;;;;6280035;22;19918;-78
2021/06/20 06:16:07;;;;;;;;;;;21.30;99.90;;;;;;6254794;22;19919;-79
2021/06/20 06:18:39;;;;;;;;;;;21.20;99.90;;;;;;6255244;22;19926;-79
2021/06/20 06:21:12;;;;;;;;;;;21.20;99.90;;;;;;6255279;22;19919;-79
2021/06/20 06:23:40;;;;;;;;;;;21.10;99.90;;;;;;6279528;22;19919;-79
2021/06/20 06:26:08;;;;;;;;;;;21.10;99.90;;;;;;6254710;22;19919;-78
2021/06/20 06:28:36;;;;;;;;;;;21.00;99.90;;;;;;6307176;22;20312;-79
2021/06/20 06:31:03;;;;;;;;;;;20.90;99.90;;;;;;6254785;22;19919;-79
2021/06/20 06:33:31;;;;;;;;;;;20.70;99.90;;;;;;6280122;22;19926;-79
2021/06/20 06:35:58;;;;;;;;;;;20.70;99.90;;;;;;6253881;22;19922;-78
2021/06/20 06:38:27;;;;;;;;;;;20.70;99.90;;;;;;6279214;22;19926;-78
2021/06/20 06:40:54;;;;;;;;;;;20.70;99.90;;;;;;6254157;22;19919;-79
2021/06/20 06:43:22;;;;;;;;;;;20.60;99.90;;;;;;6254174;22;19919;-78
2021/06/20 06:45:50;;;;;;;;;;;20.50;99.90;;;;;;6254195;22;19919;-78
2021/06/20 06:48:18;;;;;;;;;;;20.50;99.90;;;;;;6253739;22;20413;-78
2021/06/20 06:50:46;;;;;;;;;;;20.40;99.90;;;;;;6254511;22;19919;-78
2021/06/20 06:53:14;;;;;;;;;;;20.30;99.90;;;;;;6254454;22;19926;-79
2021/06/20 06:55:46;;;;;;;;;;;20.20;99.90;;;;;;6255111;22;19925;-78
2021/06/20 06:58:14;;;;;;;;;;;20.20;99.90;;;;;;6253912;22;20123;-78
2021/06/20 07:00:42;;;;;;;;;;;20.20;99.90;;;;;;6278580;22;19919;-78
2021/06/20 07:03:09;;;;;;;;;;;20.20;99.90;;;;;;6253451;22;19926;-78
2021/06/20 07:05:37;;;;;;;;;;;20.20;99.90;;;;;;6278984;22;19919;-78
2021/06/20 07:08:05;;;;;;;;;;;20.20;99.90;;;;;;6278702;22;20218;-78
2021/06/20 07:10:33;;;;;;;;;;;20.20;99.90;;;;;;6280417;22;19973;-78
2021/06/20 07:13:01;;;;;;;;;;;20.30;99.90;;;;;;6255114;22;19925;-79
2021/06/20 07:15:29;;;;;;;;;;;20.30;99.90;;;;;;6257482;22;19942;-78
2021/06/20 07:17:56;;;;;;;;;;;20.30;99.90;;;;;;6254511;22;19918;-78
2021/06/20 07:20:23;;;;;;;;;;;20.40;99.90;;;;;;6280334;22;19988;-78
2021/06/20 07:22:50;;;;;;;;;;;20.40;99.90;;;;;;6280288;22;20260;-78
2021/06/20 07:25:19;;;;;;;;;;;20.50;99.90;;;;;;6279993;22;19919;-78
2021/06/20 07:27:47;;;;;;;;;;;20.50;99.90;;;;;;6255403;22;19925;-79
2021/06/20 07:30:20;;;;;;;;;;;20.50;99.90;;;;;;6280702;22;19996;-78
2021/06/20 07:32:48;;;;;;;;;;;20.60;99.90;;;;;;6255110;22;20343;-78
2021/06/20 07:35:16;;;;;;;;;;;20.50;99.90;;;;;;6280396;22;19918;-78
2021/06/20 07:37:43;;;;;;;;;;;20.60;99.90;;;;;;6254956;22;20306;-78
2021/06/20 07:40:16;;;;;;;;;;;20.70;99.90;;;;;;6256009;22;19925;-78
2021/06/20 07:42:45;;;;;;;;;;;20.70;99.90;;;;;;6280205;22;19926;-79
2021/06/20 07:45:18;;;;;;;;;;;20.70;99.90;;;;;;6280337;22;19930;-78
2021/06/20 07:47:52;;;;;;;;;;;20.70;99.90;;;;;;6255772;22;19923;-78
2021/06/20 07:50:25;;;;;;;;;;;20.80;99.90;;;;;;6256340;22;20399;-79
2021/06/20 07:52:53;;;;;;;;;;;20.70;99.90;;;;;;6281456;22;20358;-79
2021/06/20 07:55:25;;;;;;;;;;;20.70;99.90;;;;;;6256429;22;19925;-79
2021/06/20 07:57:58;;;;;;;;;;;20.80;99.90;;;;;;6255748;22;20356;-78
2021/06/20 08:00:31;;;;;;;;;;;20.90;99.90;;;;;;6279747;22;19919;-79
2021/06/20 08:02:58;;;;;;;;;;;20.90;99.90;;;;;;6255404;22;19922;-78
2021/06/20 08:05:25;;;;;;;;;;;20.90;99.90;;;;;;6254352;22;19926;-78
2021/06/20 08:07:53;;;;;;;;;;;21.10;99.90;;;;;;6305744;22;19946;-79
2021/06/20 08:10:26;;;;;;;;;;;21.10;99.90;;;;;;6280886;22;20407;-79
2021/06/20 08:12:54;;;;;;;;;;;21.20;99.90;;;;;;6280370;22;19942;-78
2021/06/20 08:15:22;;;;;;;;;;;21.30;99.90;;;;;;6255034;22;19923;-79
2021/06/20 08:17:49;;;;;;;;;;;21.50;99.90;;;;;;6280371;22;19950;-78
2021/06/20 08:20:17;;;;;;;;;;;21.70;99.90;;;;;;6254602;22;19923;-79
2021/06/20 08:22:49;;;;;;;;;;;21.70;99.90;;;;;;6256152;22;19969;-79
2021/06/20 08:25:17;;;;;;;;;;;21.70;99.90;;;;;;6256011;22;19919;-78
2021/06/20 08:27:44;;;;;;;;;;;21.80;99.90;;;;;;6281901;22;20320;-78
2021/06/20 08:30:11;;;;;;;;;;;21.80;99.90;;;;;;6256380;22;19919;-78
2021/06/20 08:32:38;;;;;;;;;;;21.90;99.90;;;;;;6281813;22;20002;-78
2021/06/20 08:35:05;;;;;;;;;;;21.90;99.90;;;;;;6281545;22;20006;-78
2021/06/20 08:37:32;;;;;;;;;;;21.80;99.90;;;;;;6256256;22;19950;-78
2021/06/20 08:40:04;;;;;;;;;;;21.80;99.90;;;;;;6281789;22;19950;-78
2021/06/20 08:42:31;;;;;;;;;;;21.70;99.90;;;;;;6256588;22;19919;-78
2021/06/20 08:44:58;;;;;;;;;;;21.70;99.90;;;;;;6281606;22;19951;-78
2021/06/20 08:47:30;;;;;;;;;;;21.80;99.90;;;;;;6257352;22;19919;-78
2021/06/20 08:49:56;;;;;;;;;;;21.90;99.90;;;;;;6281565;22;19919;-78
2021/06/20 08:52:29;;;;;;;;;;;22.00;99.90;;;;;;6282855;22;20366;-78
2021/06/20 08:55:01;;;;;;;;;;;22.00;99.90;;;;;;6281502;22;20025;-78
2021/06/20 08:57:32;;;;;;;;;;;21.90;99.90;;;;;;6256088;22;19954;-78
2021/06/20 08:59:59;;;;;;;;;;;21.90;99.90;;;;;;6256646;22;19930;-78
2021/06/20 09:02:27;;;;;;;;;;;22.00;99.90;;;;;;6256218;22;19919;-78
2021/06/20 09:04:58;;;;;;;;;;;21.90;99.90;;;;;;6256043;22;19964;-78
2021/06/20 09:07:52;;;;;;;;;;;21.80;99.90;;;;;;6256301;22;20290;-78
2021/06/20 09:10:20;;;;;;;;;;;22.00;99.90;;;;;;6276719;22;19922;-78
2021/06/20 09:12:57;;;;;;;;;;;22.20;99.90;;;;;;6281728;22;19918;-78
2021/06/20 09:15:31;;;;;;;;;;;22.40;99.90;;;;;;6256681;22;20279;-78
2021/06/20 09:17:59;;;;;;;;;;;22.60;99.90;;;;;;6256101;22;20298;-78
2021/06/20 09:20:36;;;;;;;;;;;22.80;99.90;;;;;;6282117;22;19919;-78
2021/06/20 09:23:06;;;;;;;;;;;23.00;99.90;;;;;;6281728;22;19918;-78
2021/06/20 09:25:33;;;;;;;;;;;23.20;99.90;;;;;;6256326;22;19992;-79
2021/06/20 09:28:03;;;;;;;;;;;23.40;99.90;;;;;;6282036;22;19919;-78
2021/06/20 09:30:43;;;;;;;;;;;23.50;99.90;;;;;;6282457;22;19923;-78
2021/06/20 09:33:15;;;;;;;;;;;23.60;99.90;;;;;;6255901;22;20381;-79
2021/06/20 09:35:43;;;;;;;;;;;23.70;99.90;;;;;;6255885;22;20259;-78
2021/06/20 09:38:17;;;;;;;;;;;23.70;99.90;;;;;;6281270;22;19919;-78
2021/06/20 09:40:44;;;;;;;;;;;23.80;99.90;;;;;;6256139;22;19942;-78
2021/06/20 09:43:15;;;;;;;;;;;23.80;99.90;;;;;;6281678;22;19934;-79
2021/06/20 09:45:44;;;;;;;;;;;23.80;99.90;;;;;;6255026;22;20307;-79
2021/06/20 09:48:21;;;;;;;;;;;23.80;99.90;;;;;;6278850;22;19918;-79
2021/06/20 09:50:49;;;;;;;;;;;24.00;99.90;;;;;;6279995;22;19923;-79
2021/06/20 09:53:20;;;;;;;;;;;24.20;99.90;;;;;;6254750;22;20002;-78
2021/06/20 09:55:47;;;;;;;;;;;24.30;99.90;;;;;;6280242;22;19919;-79
2021/06/20 09:58:19;;;;;;;;;;;24.40;99.90;;;;;;6254681;22;19925;-79
2021/06/20 10:00:46;;;;;;;;;;;24.70;99.90;;;;;;6279935;22;19919;-79
2021/06/20 10:03:23;;;;;;;;;;;24.90;99.90;;;;;;6279288;22;19943;-78
2021/06/20 10:05:52;;;;;;;;;;;25.10;99.90;;;;;;6254149;22;19919;-79
2021/06/20 10:08:24;;;;;;;;;;;25.20;99.90;;;;;;6279412;22;19919;-78
2021/06/20 10:10:51;;;;;;;;;;;25.40;99.90;;;;;;6254405;22;20537;-79
2021/06/20 10:13:18;;;;;;;;;;;25.40;99.90;;;;;;6254618;22;20233;-79
2021/06/20 10:15:45;;;;;;;;;;;25.50;99.90;;;;;;6254485;22;20264;-79
2021/06/20 10:18:13;;;;;;;;;;;25.50;99.90;;;;;;6254088;22;19929;-79
2021/06/20 10:20:40;;;;;;;;;;;25.40;99.90;;;;;;6254025;22;20339;-79
2021/06/20 10:23:16;;;;;;;;;;;25.40;99.90;;;;;;6257569;22;19969;-79
2021/06/20 10:25:44;;;;;;;;;;;25.40;99.90;;;;;;6256873;22;19926;-79
2021/06/20 10:28:13;;;;;;;;;;;25.30;99.90;;;;;;6255815;22;19919;-79
2021/06/20 10:30:42;;;;;;;;;;;25.30;99.90;;;;;;6256247;22;19919;-79
2021/06/20 10:33:12;;;;;;;;;;;25.40;99.90;;;;;;6255179;22;20267;-79
2021/06/20 10:35:41;;;;;;;;;;;25.50;99.90;;;;;;6280966;22;19923;-79
2021/06/20 10:38:29;;;;;;;;;;;25.50;99.90;;;;;;6254875;22;20330;-79
2021/06/20 10:40:57;;;;;;;;;;;25.60;99.90;;;;;;6255262;22;20316;-79
2021/06/20 10:43:25;;;;;;;;;;;25.70;99.90;;;;;;6280565;22;19919;-79
2021/06/20 10:45:53;;;;;;;;;;;25.70;99.90;;;;;;6254590;22;19942;-80
2021/06/20 10:48:22;;;;;;;;;;;25.80;99.90;;;;;;6255166;22;19919;-79
2021/06/20 10:50:51;;;;;;;;;;;25.80;99.90;;;;;;6279410;22;19927;-79
2021/06/20 10:53:20;;;;;;;;;;;25.90;99.90;;;;;;6280744;22;19919;-79
2021/06/20 10:55:49;;;;;;;;;;;25.90;99.90;;;;;;6256078;22;20275;-78
2021/06/20 10:58:18;;;;;;;;;;;26.00;99.90;;;;;;6255920;22;19923;-80
2021/06/20 11:00:45;;;;;;;;;;;26.00;99.90;;;;;;6280893;22;20231;-80
2021/06/20 11:03:26;;;;;;;;;;;25.90;99.90;;;;;;6255300;22;19919;-80
2021/06/20 11:05:53;;;;;;;;;;;25.90;99.90;;;;;;6255248;22;19976;-80
2021/06/20 11:08:24;;;;;;;;;;;25.90;99.90;;;;;;6280916;22;19956;-80
2021/06/20 11:11:12;;;;;;;;;;;25.90;99.90;;;;;;6280585;22;19942;-80
2021/06/20 11:13:40;;;;;;;;;;;25.90;99.90;;;;;;6254995;22;19957;-79
2021/06/20 11:16:08;;;;;;;;;;;25.90;99.90;;;;;;6280456;22;19953;-79
2021/06/20 11:18:36;;;;;;;;;;;25.90;99.90;;;;;;6254850;22;19923;-79
2021/06/20 11:21:03;;;;;;;;;;;26.00;99.90;;;;;;6254961;22;19934;-80
2021/06/20 11:23:31;;;;;;;;;;;26.10;99.90;;;;;;6256429;22;19919;-81
2021/06/20 11:26:06;;;;;;;;;;;26.30;99.90;;;;;;6257395;22;19919;-81
2021/06/20 11:28:38;;;;;;;;;;;26.40;99.90;;;;;;6280718;22;19942;-81
2021/06/20 11:31:10;;;;;;;;;;;26.40;99.90;;;;;;6280833;22;19919;-80
2021/06/20 11:33:38;;;;;;;;;;;26.40;99.90;;;;;;6254996;22;19942;-81
2021/06/20 11:36:05;;;;;;;;;;;26.40;99.90;;;;;;6255567;22;19918;-80
2021/06/20 11:38:35;;;;;;;;;;;26.40;99.90;;;;;;6255560;22;19976;-79
2021/06/20 11:41:18;;;;;;;;;;;26.40;99.90;;;;;;6254525;22;19919;-78
2021/06/20 11:43:52;;;;;;;;;;;26.40;99.90;;;;;;6281159;22;20002;-78
2021/06/20 11:46:24;;;;;;;;;;;26.40;99.90;;;;;;6255827;22;20340;-79
2021/06/20 11:48:55;;;;;;;;;;;26.40;99.90;;;;;;6280549;22;19988;-79
2021/06/20 11:51:29;;;;;;;;;;;26.40;99.90;;;;;;6280197;22;19953;-80
2021/06/20 11:54:07;;;;;;;;;;;26.40;99.90;;;;;;6254500;22;19922;-80
2021/06/20 11:56:34;;;;;;;;;;;26.40;99.90;;;;;;6280680;22;19925;-78
2021/06/20 11:59:01;;;;;;;;;;;26.50;99.90;;;;;;6284853;22;19926;-79
2021/06/20 12:01:39;;;;;;;;;;;26.50;99.90;;;;;;6260623;22;19919;-80
2021/06/20 12:04:12;;;;;;;;;;;26.50;99.90;;;;;;6259740;22;19919;-79
2021/06/20 12:06:40;;;;;;;;;;;26.60;99.90;;;;;;6286544;22;19922;-80
2021/06/20 12:09:08;;;;;;;;;;;26.60;99.90;;;;;;6290495;22;19919;-78
2021/06/20 12:11:35;;;;;;;;;;;26.70;99.90;;;;;;6260959;22;20405;-79
2021/06/20 12:14:04;;;;;;;;;;;26.80;99.90;;;;;;6290486;22;19926;-79
2021/06/20 12:16:32;;;;;;;;;;;26.90;99.90;;;;;;6267077;22;19919;-79
2021/06/20 12:18:59;;;;;;;;;;;27.00;99.90;;;;;;6287392;22;19919;-80
2021/06/20 12:21:28;;;;;;;;;;;27.20;99.90;;;;;;6296826;22;19919;-78
2021/06/20 12:23:58;;;;;;;;;;;27.20;99.90;;;;;;6296406;22;19918;-81
2021/06/20 12:26:26;;;;;;;;;;;27.30;99.90;;;;;;6323250;22;20331;-81
2021/06/20 12:28:53;;;;;;;;;;;27.30;99.90;;;;;;6296819;22;19919;-82
2021/06/20 12:31:20;;;;;;;;;;;27.40;99.90;;;;;;6297479;22;19918;-83
2021/06/20 12:33:57;;;;;;;;;;;27.40;99.90;;;;;;6295950;22;19919;-81
2021/06/20 12:36:29;;;;;;;;;;;27.50;99.90;;;;;;6270001;22;19926;-81
2021/06/20 12:38:57;;;;;;;;;;;27.50;99.90;;;;;;6268368;22;19919;-83
2021/06/20 12:41:28;;;;;;;;;;;27.60;99.90;;;;;;6294667;22;19926;-82
2021/06/20 12:43:57;;;;;;;;;;;27.60;99.90;;;;;;6295620;22;19919;-82
2021/06/20 12:46:37;;;;;;;;;;;27.70;99.90;;;;;;6295332;22;19946;-79
2021/06/20 12:49:07;;;;;;;;;;;27.70;99.90;;;;;;6296838;22;19919;-82
2021/06/20 12:51:35;;;;;;;;;;;27.90;99.90;;;;;;6294706;22;19961;-81
2021/06/20 12:54:07;;;;;;;;;;;28.20;99.90;;;;;;6291716;22;19919;-82
2021/06/20 12:56:34;;;;;;;;;;;28.50;99.90;;;;;;6289682;22;19919;-84
2021/06/20 12:59:08;;;;;;;;;;;28.70;99.90;;;;;;6290637;22;19976;-82
2021/06/20 13:01:50;;;;;;;;;;;28.80;99.90;;;;;;6290039;22;19972;-85
2021/06/20 13:04:17;;;;;;;;;;;28.90;99.90;;;;;;6290987;22;19945;-82
2021/06/20 13:06:50;;;;;;;;;;;28.80;99.90;;;;;;6265656;22;19950;-82
2021/06/20 13:09:22;;;;;;;;;;;28.90;99.90;;;;;;6288839;22;19957;-82
2021/06/20 13:11:54;;;;;;;;;;;29.10;99.90;;;;;;6264076;22;19935;-82
2021/06/20 13:14:28;;;;;;;;;;;29.20;99.90;;;;;;6288692;22;19925;-82
2021/06/20 13:16:59;;;;;;;;;;;29.60;99.90;;;;;;6262711;22;19942;-82
2021/06/20 13:19:28;;;;;;;;;;;29.90;99.80;;;;;;6286332;22;19942;-82
2021/06/20 13:21:55;;;;;;;;;;;30.00;99.70;;;;;;6286637;22;19919;-82
2021/06/20 13:24:27;;;;;;;;;;;30.20;99.10;;;;;;6286729;22;20002;-82
2021/06/20 13:26:54;;;;;;;;;;;30.30;98.00;;;;;;6260208;22;19919;-82
2021/06/20 13:29:21;;;;;;;;;;;30.20;97.50;;;;;;6260082;22;19923;-82
2021/06/20 13:31:55;;;;;;;;;;;30.10;97.10;;;;;;6262406;22;19919;-82
2021/06/20 13:34:21;;;;;;;;;;;30.10;97.80;;;;;;6286015;22;20237;-82
2021/06/20 13:36:48;;;;;;;;;;;30.20;98.20;;;;;;6285377;22;19968;-82
2021/06/20 13:39:15;;;;;;;;;;;30.30;96.20;;;;;;6259933;22;19926;-82
2021/06/20 13:41:46;;;;;;;;;;;30.50;95.80;;;;;;6261618;22;19971;-82
2021/06/20 13:44:13;;;;;;;;;;;30.70;95.70;;;;;;6286776;22;19997;-82
2021/06/20 13:46:49;;;;;;;;;;;30.80;95.00;;;;;;6285628;22;19934;-82
2021/06/20 13:49:21;;;;;;;;;;;30.80;93.90;;;;;;6285769;22;19923;-82
2021/06/20 13:51:48;;;;;;;;;;;31.00;94.20;;;;;;6285405;22;19919;-82
2021/06/20 13:54:14;;;;;;;;;;;31.10;93.70;;;;;;6260301;22;20399;-82
2021/06/20 13:56:47;;;;;;;;;;;31.20;93.20;;;;;;6286220;22;19926;-82
2021/06/20 13:59:20;;;;;;;;;;;31.20;92.50;;;;;;6287007;22;19919;-82
2021/06/20 14:01:52;;;;;;;;;;;31.40;92.10;;;;;;6287557;22;20399;-82
2021/06/20 14:04:19;;;;;;;;;;;31.60;92.20;;;;;;6286105;22;19941;-82
2021/06/20 14:06:52;;;;;;;;;;;31.70;91.30;;;;;;6286142;22;20327;-82
2021/06/20 14:09:23;;;;;;;;;;;31.60;90.20;;;;;;6285271;22;19954;-82
2021/06/20 14:11:50;;;;;;;;;;;31.70;88.90;;;;;;6289576;22;19966;-80
2021/06/20 14:14:21;;;;;;;;;;;31.90;90.50;;;;;;6261987;22;19965;-82
2021/06/20 14:16:48;;;;;;;;;;;32.10;87.40;;;;;;6285858;22;19919;-82
2021/06/20 14:19:15;;;;;;;;;;;32.20;86.60;;;;;;6260192;22;19973;-82
2021/06/20 14:21:42;;;;;;;;;;;32.30;87.90;;;;;;6285821;22;19953;-81
2021/06/20 14:24:08;;;;;;;;;;;32.30;85.00;;;;;;6260833;22;19919;-82
2021/06/20 14:26:35;;;;;;;;;;;32.50;84.30;;;;;;6259494;22;19919;-81
2021/06/20 14:29:02;;;;;;;;;;;32.70;85.00;;;;;;6260347;22;19976;-81
2021/06/20 14:31:35;;;;;;;;;;;32.70;80.80;;;;;;6286673;22;20001;-82